Superior Township, Michigan
Current Conditions -  °F | °C
As of 4:33 AM on Monday 24 Nov 2014 (Local Time) from KARB Reporting Station
Overcast Overcast  
Wind Chill: 56°   Ceiling: 1600
Heat Index: 56°   Visibility: 10mi
Dew Point: 52°   Wind: 17mph
Humidity: 87%   Direction: 220°SW
Pressure: 29.09"   Gusts: 25mph
Location:  42.3281°N, 83.7037°W
Report Text: KARB 240933Z AUTO 22015G22KT 10SM BKN016 OVC025 13/11 A2909 RMK AO2 RAE19 P0000 T01330111
Loading
Personal Weather Stations






























Interactive Weather Map New forecast layout! Learn more

10-Day Weather Forecast

Advertisements
Track Severe Weather on mobile